首页
METAR-TAF:

METAR-TAF

机场 :

Polk Army Airfield

Fort Polk, 路易斯安那州, 美国

纬度: 31-02N, 经度: 093-02W, 海拔: 100米

当前天气观测

该预报发布于26分钟前的10:58 UTC
风速8节,风向,有时为15节阵风
温度 3°C
湿度 93%
气压 1030 hPa
能見度: 16.1公里
阴天层高于900英尺

METAR: KPOE 111058Z AUTO 01008G15KT 10SM OVC009 03/02 A3043 RMK AO2 SLP309 T00340019

时间: 05:24 (11:24 UTC)

预报

该预报发布于54分钟前的10:30 UTC
预报有效从11日的 10点(UTC)到 12日的 14点(UTC)
风速9节,风向
能见度10公里或以上
阴天层高于900英尺
成为
从 11日的 12点(UTC)到 11日的 13点(UTC)
风速9节,风向北转东北
能见度10公里或以上
多云层高于1400英尺
成为
从 11日的 14点(UTC)到 11日的 15点(UTC)
风速12节,风向东北
能见度10公里或以上
天空无云
成为
从 11日的 22点(UTC)到 11日的 23点(UTC)
风速6节,风向东北
能见度10公里或以上
天空无云

TAF: KPOE 111030Z 1110/1214 01009KT 9999 OVC009 QNH3038INS BECMG 1112/1113 03009KT 9999 BKN014 QNH3038INS BECMG 1114/1115 04012KT 9999 SKC QNH3039INS BECMG 1122/1123 05006KT 9999 SKC QNH3044INS TX11/1121Z TN02/1113Z

超过4000个机场的气象观测和天气预报(METAR&TAF报告)。

可查询的气象台以黄色和红色小点在地图上表示。

将鼠标移到小点上方,可查看气象台名称。

然后点击查看天气观测和预报。

如需切换地图:点击带黑十字的绿色按钮放大地图;点击带横线的绿色按钮缩小地图;或者点击绿色箭头查看邻近地区的地图。


METAR-TAF: